Time;durP1;ratioP1;P1;durP2;ratioP2;P2;SDS_P1;SDS_P2;PMS_P1;PMS_P2;Temp;Humidity;BMP_temperature;BMP_pressure;BME280_temperature;BME280_humidity;BME280_pressure;Samples;Min_cycle;Max_cycle;Signal;HPM_P1;HPM_P2
2022/01/07 00:03:34;;;;;;;20.90;11.77;;;2.10;92.00;;;;;;20915837;28;20204;-63
2022/01/07 00:13:36;;;;;;;26.13;12.43;;;2.20;92.20;;;;;;20914632;28;20235;-63
2022/01/07 00:23:38;;;;;;;24.83;11.43;;;2.10;92.00;;;;;;20913488;28;20211;-63
2022/01/07 00:33:40;;;;;;;24.67;11.20;;;2.20;92.40;;;;;;20913677;28;20227;-64
2022/01/07 00:43:42;;;;;;;27.73;12.67;;;2.10;92.10;;;;;;20887392;28;20606;-63
2022/01/07 00:53:47;;;;;;;29.33;13.87;;;2.10;92.00;;;;;;20829777;28;20279;-63
2022/01/07 01:03:49;;;;;;;28.87;13.50;;;2.10;92.10;;;;;;20830118;28;20235;-65
2022/01/07 01:13:51;;;;;;;26.03;11.83;;;2.10;92.20;;;;;;20829089;28;20289;-62
2022/01/07 01:23:52;;;;;;;23.27;11.30;;;2.00;92.40;;;;;;20826057;28;20208;-62
2022/01/07 01:33:54;;;;;;;22.00;10.83;;;2.00;92.40;;;;;;20834906;28;20238;-64
2022/01/07 01:43:59;;;;;;;20.03;10.43;;;2.00;92.50;;;;;;20871597;28;20639;-63
2022/01/07 01:54:03;;;;;;;21.63;9.80;;;2.00;92.40;;;;;;20925444;28;20244;-63
2022/01/07 02:04:05;;;;;;;19.93;9.97;;;1.90;92.40;;;;;;20925091;28;20208;-62
2022/01/07 02:14:07;;;;;;;23.73;9.80;;;1.90;92.50;;;;;;20923943;28;20258;-65
2022/01/07 02:24:09;;;;;;;23.93;9.40;;;1.90;92.40;;;;;;20923301;28;20260;-63
2022/01/07 02:34:11;;;;;;;24.80;9.90;;;1.90;92.70;;;;;;20923014;28;20251;-65
2022/01/07 02:44:13;;;;;;;28.50;10.80;;;2.00;92.50;;;;;;20890491;28;20209;-63
2022/01/07 03:01:34;;;;;;;24.17;10.27;;;1.80;92.50;;;;;;20984989;28;20911;-64
2022/01/07 03:11:36;;;;;;;18.93;9.10;;;;;;;;;;20983973;28;20214;-65
2022/01/07 03:21:38;;;;;;;19.63;9.00;;;2.10;92.80;;;;;;20950418;28;20237;-66
2022/01/07 03:31:40;;;;;;;23.10;9.57;;;2.10;92.70;;;;;;20898509;28;20230;-65
2022/01/07 03:41:41;;;;;;;20.10;9.40;;;2.10;92.80;;;;;;20907704;28;20276;-65
2022/01/07 03:51:43;;;;;;;18.87;8.53;;;2.10;93.10;;;;;;20980022;28;20257;-64
2022/01/07 04:01:45;;;;;;;19.50;9.07;;;2.10;93.00;;;;;;20979713;28;20570;-65
2022/01/07 04:11:46;;;;;;;16.83;8.70;;;2.20;93.20;;;;;;20930321;28;20239;-63
2022/01/07 04:21:49;;;;;;;15.73;8.23;;;2.10;93.00;;;;;;20923384;28;20265;-61
2022/01/07 04:31:51;;;;;;;18.17;8.33;;;2.20;92.90;;;;;;20922750;28;20215;-64
2022/01/07 04:41:54;;;;;;;16.87;8.77;;;2.20;93.00;;;;;;20911344;28;20216;-63
2022/01/07 04:51:56;;;;;;;14.77;8.10;;;2.30;93.10;;;;;;20840535;28;20233;-67
2022/01/07 05:01:58;;;;;;;15.73;8.07;;;2.30;93.40;;;;;;20838395;28;20624;-65
2022/01/07 05:11:59;;;;;;;19.07;8.50;;;2.40;93.20;;;;;;20837226;28;20335;-63
2022/01/07 05:22:01;;;;;;;21.10;8.70;;;2.40;93.10;;;;;;20863246;28;20265;-64
2022/01/07 05:32:05;;;;;;;16.63;8.63;;;2.40;93.20;;;;;;20916394;28;20622;-64
2022/01/07 05:42:07;;;;;;;17.50;8.73;;;2.50;93.20;;;;;;20903095;28;20254;-63
2022/01/07 05:52:10;;;;;;;18.33;7.90;;;2.50;93.20;;;;;;20833504;28;20282;-63
2022/01/07 06:02:11;;;;;;;22.03;10.60;;;2.60;93.30;;;;;;20830906;28;20833;-62
2022/01/07 06:12:13;;;;;;;17.67;7.93;;;2.80;93.60;;;;;;20832061;28;20228;-63
2022/01/07 06:22:15;;;;;;;14.07;6.90;;;2.80;93.70;;;;;;20831306;28;20212;-64
2022/01/07 06:32:17;;;;;;;15.00;6.37;;;2.90;93.80;;;;;;20830371;28;20232;-65
2022/01/07 06:42:19;;;;;;;13.60;6.73;;;3.10;94.20;;;;;;20842387;28;20663;-66
2022/01/07 06:52:20;;;;;;;14.23;6.93;;;3.20;94.10;;;;;;20912133;28;20244;-67
2022/01/07 07:02:22;;;;;;;13.57;6.80;;;3.50;93.90;;;;;;20911515;28;20257;-68
2022/01/07 07:12:24;;;;;;;13.83;7.93;;;3.60;93.80;;;;;;20909539;28;20452;-68
2022/01/07 07:22:25;;;;;;;12.57;6.57;;;3.80;94.00;;;;;;20882233;28;20970;-64
2022/01/07 07:32:29;;;;;;;12.47;6.73;;;3.90;93.60;;;;;;20824040;28;20228;-64
2022/01/07 07:42:31;;;;;;;15.53;6.83;;;3.90;93.30;;;;;;20848749;28;20254;-65
2022/01/07 07:52:33;;;;;;;14.27;6.70;;;4.00;93.20;;;;;;20923502;28;20243;-64
2022/01/07 08:02:34;;;;;;;11.83;6.10;;;4.00;93.50;;;;;;20924171;28;20204;-67
2022/01/07 08:12:52;;;;;;;13.87;6.03;;;4.20;92.70;;;;;;20927664;28;20239;-65
2022/01/07 08:22:56;;;;;;;11.63;6.27;;;4.20;93.00;;;;;;20923409;28;20265;-66
2022/01/07 08:43:18;;;;;;;12.40;5.23;;;4.30;92.30;;;;;;20898488;28;20205;-66
2022/01/07 08:53:20;;;;;;;10.13;5.03;;;4.40;92.50;;;;;;20837302;28;20241;-65
2022/01/07 09:03:22;;;;;;;11.20;5.20;;;4.40;92.20;;;;;;20837217;28;20212;-67
2022/01/07 09:13:24;;;;;;;9.70;4.57;;;4.40;91.90;;;;;;20835054;28;20290;-66
2022/01/07 09:23:26;;;;;;;11.57;4.90;;;4.50;91.30;;;;;;20837730;28;20215;-65
2022/01/07 09:33:28;;;;;;;9.57;5.07;;;4.60;91.10;;;;;;20834304;28;20240;-66
2022/01/07 09:43:49;;;;;;;9.87;4.90;;;4.70;90.90;;;;;;20861770;28;20639;-67
2022/01/07 09:53:51;;;;;;;8.57;4.37;;;4.70;90.70;;;;;;20915716;28;20241;-67
2022/01/07 10:03:53;;;;;;;8.63;4.87;;;4.70;90.50;;;;;;20913336;28;20231;-68
2022/01/07 10:14:22;;;;;;;9.40;5.07;;;4.70;90.80;;;;;;20915029;28;20727;-67
2022/01/07 10:24:24;;;;;;;8.90;5.40;;;4.60;90.30;;;;;;20914650;28;20210;-67
2022/01/07 10:34:25;;;;;;;12.17;5.67;;;4.60;90.70;;;;;;20919118;28;20266;-67
2022/01/07 10:44:27;;;;;;;10.33;5.67;;;4.60;91.00;;;;;;20882398;28;20208;-66
2022/01/07 10:54:29;;;;;;;9.77;5.60;;;4.80;91.20;;;;;;20829736;28;20236;-68
2022/01/07 11:04:32;;;;;;;11.07;5.73;;;4.80;91.50;;;;;;20829562;28;20346;-67
2022/01/07 11:14:37;;;;;;;9.77;5.77;;;4.80;91.90;;;;;;20831555;28;20228;-69
2022/01/07 11:24:46;;;;;;;10.17;5.90;;;4.70;92.00;;;;;;20844868;28;20209;-67
2022/01/07 11:34:48;;;;;;;11.30;5.83;;;4.70;92.40;;;;;;20841002;28;20649;-67
2022/01/07 11:44:52;;;;;;;12.97;5.70;;;4.70;92.50;;;;;;20878055;28;20200;-66
2022/01/07 11:55:18;;;;;;;8.90;4.97;;;4.70;92.90;;;;;;20923856;28;20236;-66
2022/01/07 12:05:31;;;;;;;9.97;5.77;;;4.90;92.80;;;;;;20920842;28;20207;-68
2022/01/07 12:15:32;;;;;;;10.20;5.23;;;4.90;93.00;;;;;;20920305;28;20239;-69
2022/01/07 12:25:35;;;;;;;10.67;5.27;;;5.10;93.00;;;;;;20919051;28;20208;-71
2022/01/07 12:35:38;;;;;;;6.90;4.60;;;5.00;92.80;;;;;;20920976;28;20299;-67
2022/01/07 12:45:39;;;;;;;8.37;5.13;;;4.90;92.80;;;;;;20879875;28;20201;-70
2022/01/07 12:55:44;;;;;;;5.63;4.20;;;4.90;92.70;;;;;;20837660;28;20247;-69
2022/01/07 13:05:48;;;;;;;5.77;4.03;;;5.00;92.50;;;;;;20839684;28;20224;-70
2022/01/07 13:15:53;;;;;;;6.50;4.30;;;4.90;92.60;;;;;;20843972;28;20240;-70
2022/01/07 13:25:57;;;;;;;4.70;3.97;;;5.00;92.80;;;;;;20835068;28;20212;-71
2022/01/07 13:36:06;;;;;;;6.60;4.30;;;5.00;92.70;;;;;;20831804;28;20250;-71
2022/01/07 13:46:17;;;;;;;6.57;4.13;;;4.90;92.50;;;;;;20879651;28;20549;-72
2022/01/07 13:56:19;;;;;;;11.27;6.67;;;4.90;92.40;;;;;;20933968;28;20243;-72
2022/01/07 14:06:24;;;;;;;8.20;4.50;;;4.90;92.40;;;;;;20974180;28;20537;-66
2022/01/07 14:16:25;;;;;;;7.47;4.27;;;5.00;92.40;;;;;;20923823;28;20630;-71
2022/01/07 14:26:30;;;;;;;5.40;4.27;;;5.00;92.80;;;;;;20926970;28;20196;-69
2022/01/07 14:43:24;;;;;;;11.27;6.60;;;4.90;92.30;;;;;;21067517;28;20586;-71
2022/01/07 14:53:26;;;;;;;11.60;6.60;;;4.80;92.40;;;;;;21066303;28;20203;-67
2022/01/07 15:03:27;;;;;;;8.90;6.23;;;4.80;92.70;;;;;;21103967;28;20255;-70
2022/01/07 15:13:29;;;;;;;7.70;4.70;;;4.80;92.90;;;;;;21107759;28;20216;-67
2022/01/07 15:23:31;;;;;;;7.60;5.00;;;4.70;93.30;;;;;;20980249;28;20199;-69
2022/01/07 15:33:32;;;;;;;9.27;4.83;;;4.90;93.60;;;;;;20977291;28;20253;-68
2022/01/07 15:43:35;;;;;;;8.27;5.30;;;4.90;93.80;;;;;;20979285;28;20219;-70
2022/01/07 15:53:38;;;;;;;8.53;5.23;;;4.90;93.90;;;;;;20930314;28;20209;-71
2022/01/07 16:03:42;;;;;;;5.97;4.80;;;5.00;94.00;;;;;;20923188;28;20265;-68
2022/01/07 16:13:43;;;;;;;7.10;5.10;;;4.90;94.00;;;;;;20922498;28;20204;-67
2022/01/07 16:23:45;;;;;;;7.10;5.50;;;4.80;93.50;;;;;;20920676;28;20304;-71
2022/01/07 16:33:48;;;;;;;15.90;7.60;;;4.80;93.50;;;;;;20924700;28;20658;-69
2022/01/07 16:43:50;;;;;;;7.43;4.60;;;4.80;93.70;;;;;;21001806;28;20616;-70
2022/01/07 16:53:51;;;;;;;7.93;5.43;;;4.80;93.60;;;;;;21001756;28;20285;-68
2022/01/07 17:03:54;;;;;;;6.87;4.87;;;4.70;93.50;;;;;;20998120;28;20249;-71
2022/01/07 17:13:56;;;;;;;7.63;4.80;;;4.70;93.70;;;;;;21000193;28;20224;-69
2022/01/07 17:23:58;;;;;;;6.30;4.67;;;4.70;94.00;;;;;;20990440;28;20203;-67
2022/01/07 17:34:00;;;;;;;7.80;5.27;;;4.80;93.90;;;;;;20930503;28;20230;-70
2022/01/07 17:44:02;;;;;;;7.20;5.13;;;4.90;94.10;;;;;;21040510;28;20203;-67
2022/01/07 17:54:04;;;;;;;6.30;4.80;;;4.90;94.40;;;;;;21044693;28;20231;-73
2022/01/07 18:04:07;;;;;;;6.13;4.03;;;4.90;94.20;;;;;;20997528;28;20207;-69
2022/01/07 18:14:09;;;;;;;6.83;4.67;;;4.90;94.20;;;;;;21058787;28;20714;-67
2022/01/07 18:24:11;;;;;;;5.17;3.90;;;4.80;94.60;;;;;;21080273;28;20230;-67
2022/01/07 18:34:13;;;;;;;4.97;3.97;;;4.70;94.40;;;;;;21077476;28;20762;-67
2022/01/07 18:44:15;;;;;;;6.63;4.03;;;4.70;94.80;;;;;;21050321;28;20272;-68
2022/01/07 18:54:17;;;;;;;5.50;4.30;;;4.70;94.70;;;;;;20995390;28;20246;-67
2022/01/07 19:04:18;;;;;;;5.53;3.87;;;4.60;95.00;;;;;;20993404;28;20207;-69
2022/01/07 19:14:20;;;;;;;4.33;3.50;;;4.70;94.70;;;;;;20991842;28;20235;-70
2022/01/07 19:24:22;;;;;;;5.40;4.00;;;4.60;94.70;;;;;;20993834;28;20204;-68
2022/01/07 19:36:19;;;;;;;4.73;3.43;;;4.70;94.80;;;;;;20982015;28;20558;-68
2022/01/07 19:46:21;;;;;;;5.40;3.97;;;4.60;94.80;;;;;;21029941;28;20565;-66
2022/01/07 19:56:23;;;;;;;3.87;3.27;;;4.70;94.90;;;;;;21066301;28;20582;-67
2022/01/07 20:06:25;;;;;;;8.07;5.30;;;4.70;95.10;;;;;;21063776;28;20662;-66
2022/01/07 20:16:26;;;;;;;4.90;4.40;;;4.60;95.00;;;;;;21065294;28;20260;-65
2022/01/07 20:26:28;;;;;;;6.60;5.10;;;4.70;95.20;;;;;;21063903;28;20605;-67
2022/01/07 20:36:32;;;;;;;8.40;5.03;;;4.70;95.10;;;;;;21063363;28;20272;-68
2022/01/07 20:46:34;;;;;;;7.23;4.50;;;4.80;95.40;;;;;;20964675;28;20199;-66
2022/01/07 20:56:37;;;;;;;6.67;4.40;;;4.80;95.00;;;;;;20921748;28;20285;-68
2022/01/07 21:06:39;;;;;;;7.45;5.43;;;4.90;95.40;;;;;;20905755;28;20505;-68
2022/01/07 21:16:41;;;;;;;7.07;4.50;;;5.50;95.00;;;;;;20920226;28;20204;-66
2022/01/07 21:26:43;;;;;;;9.17;4.83;;;4.90;94.70;;;;;;20920851;28;20236;-66
2022/01/07 21:36:44;;;;;;;6.47;4.20;;;4.90;95.00;;;;;;20920122;28;20259;-67
2022/01/07 21:46:46;;;;;;;5.73;4.37;;;4.90;94.80;;;;;;20967761;28;20227;-67
2022/01/07 21:56:48;;;;;;;6.20;4.27;;;5.10;94.80;;;;;;21000445;28;20258;-65
2022/01/07 22:06:49;;;;;;;5.40;3.83;;;5.10;94.70;;;;;;21000310;28;20231;-66
2022/01/07 22:16:51;;;;;;;7.17;5.10;;;5.10;94.50;;;;;;20999704;28;20276;-65
2022/01/07 22:26:55;;;;;;;7.00;4.83;;;5.10;94.80;;;;;;20999034;28;20304;-66
2022/01/07 22:36:57;;;;;;;5.50;4.20;;;5.20;95.00;;;;;;20998307;28;20210;-66
2022/01/07 22:46:58;;;;;;;7.17;4.23;;;5.30;94.90;;;;;;20943200;28;20685;-65
2022/01/07 22:57:00;;;;;;;4.90;3.70;;;5.30;94.90;;;;;;20914034;28;20215;-67
2022/01/07 23:07:03;;;;;;;5.57;3.40;;;5.30;94.60;;;;;;20907178;28;20220;-65
2022/01/07 23:17:07;;;;;;;6.20;3.73;;;5.40;94.60;;;;;;20913288;28;20574;-66
2022/01/07 23:27:09;;;;;;;5.03;3.70;;;5.40;94.60;;;;;;20912659;28;20324;-66
2022/01/07 23:37:11;;;;;;;5.23;3.50;;;5.50;94.50;;;;;;20912150;28;20199;-66
2022/01/07 23:47:13;;;;;;;4.93;3.10;;;5.50;94.50;;;;;;20911749;28;20278;-66
2022/01/07 23:57:15;;;;;;;4.87;2.73;;;5.40;94.40;;;;;;20911811;28;20206;-67
